sensor_id;sensor_type;location;lat;lon;timestamp;P1;durP1;ratioP1;P2;durP2;ratioP2
37851;SDS011;23691;52.486;4.650;2022-09-01T00:02:00;4.75;;;1.60;;
37851;SDS011;23691;52.486;4.650;2022-09-01T00:04:33;5.97;;;1.63;;
37851;SDS011;23691;52.486;4.650;2022-09-01T00:07:02;4.90;;;1.35;;
37851;SDS011;23691;52.486;4.650;2022-09-01T00:09:31;5.45;;;1.50;;
37851;SDS011;23691;52.486;4.650;2022-09-01T00:11:57;10.88;;;1.50;;
37851;SDS011;23691;52.486;4.650;2022-09-01T00:14:25;7.95;;;1.58;;
37851;SDS011;23691;52.486;4.650;2022-09-01T00:16:53;6.35;;;1.77;;
37851;SDS011;23691;52.486;4.650;2022-09-01T00:19:19;5.55;;;1.50;;
37851;SDS011;23691;52.486;4.650;2022-09-01T00:21:45;6.20;;;1.50;;
37851;SDS011;23691;52.486;4.650;2022-09-01T00:24:12;7.97;;;1.60;;
37851;SDS011;23691;52.486;4.650;2022-09-01T00:26:39;5.07;;;1.42;;
37851;SDS011;23691;52.486;4.650;2022-09-01T00:29:05;6.30;;;1.55;;
37851;SDS011;23691;52.486;4.650;2022-09-01T00:31:31;8.73;;;2.03;;
37851;SDS011;23691;52.486;4.650;2022-09-01T00:33:57;8.43;;;1.60;;
37851;SDS011;23691;52.486;4.650;2022-09-01T00:36:23;7.68;;;1.80;;
37851;SDS011;23691;52.486;4.650;2022-09-01T00:38:49;7.10;;;1.65;;
37851;SDS011;23691;52.486;4.650;2022-09-01T00:41:16;7.05;;;1.50;;
37851;SDS011;23691;52.486;4.650;2022-09-01T00:46:11;6.40;;;1.67;;
37851;SDS011;23691;52.486;4.650;2022-09-01T00:48:42;7.72;;;1.60;;
37851;SDS011;23691;52.486;4.650;2022-09-01T00:51:08;8.43;;;1.63;;
37851;SDS011;23691;52.486;4.650;2022-09-01T00:53:37;10.00;;;1.80;;
37851;SDS011;23691;52.486;4.650;2022-09-01T00:56:05;6.07;;;1.50;;
37851;SDS011;23691;52.486;4.650;2022-09-01T00:58:32;7.38;;;1.80;;
37851;SDS011;23691;52.486;4.650;2022-09-01T01:01:00;6.30;;;1.58;;
37851;SDS011;23691;52.486;4.650;2022-09-01T01:07:07;6.28;;;1.60;;
37851;SDS011;23691;52.486;4.650;2022-09-01T01:09:33;8.23;;;1.70;;
37851;SDS011;23691;52.486;4.650;2022-09-01T01:12:02;6.80;;;1.70;;
37851;SDS011;23691;52.486;4.650;2022-09-01T01:16:58;6.03;;;1.80;;
37851;SDS011;23691;52.486;4.650;2022-09-01T01:25:26;5.55;;;1.80;;
37851;SDS011;23691;52.486;4.650;2022-09-01T01:28:02;7.75;;;1.73;;
37851;SDS011;23691;52.486;4.650;2022-09-01T01:30:55;9.32;;;1.77;;
37851;SDS011;23691;52.486;4.650;2022-09-01T01:33:35;5.60;;;1.60;;
37851;SDS011;23691;52.486;4.650;2022-09-01T01:36:07;7.13;;;1.50;;
37851;SDS011;23691;52.486;4.650;2022-09-01T01:38:37;6.57;;;1.90;;
37851;SDS011;23691;52.486;4.650;2022-09-01T01:41:07;5.03;;;1.67;;
37851;SDS011;23691;52.486;4.650;2022-09-01T01:43:34;7.82;;;1.73;;
37851;SDS011;23691;52.486;4.650;2022-09-01T01:46:02;8.80;;;1.80;;
37851;SDS011;23691;52.486;4.650;2022-09-01T01:48:30;8.25;;;1.83;;
37851;SDS011;23691;52.486;4.650;2022-09-01T01:50:58;9.93;;;1.95;;
37851;SDS011;23691;52.486;4.650;2022-09-01T01:53:25;5.35;;;1.60;;
37851;SDS011;23691;52.486;4.650;2022-09-01T01:55:51;6.97;;;1.80;;
37851;SDS011;23691;52.486;4.650;2022-09-01T01:58:18;6.50;;;1.77;;
37851;SDS011;23691;52.486;4.650;2022-09-01T02:00:46;5.18;;;1.50;;
37851;SDS011;23691;52.486;4.650;2022-09-01T02:03:17;6.43;;;1.80;;
37851;SDS011;23691;52.486;4.650;2022-09-01T02:05:52;7.43;;;1.70;;
37851;SDS011;23691;52.486;4.650;2022-09-01T02:08:47;6.65;;;1.80;;
37851;SDS011;23691;52.486;4.650;2022-09-01T02:11:12;8.20;;;1.90;;
37851;SDS011;23691;52.486;4.650;2022-09-01T02:13:41;7.00;;;1.70;;
37851;SDS011;23691;52.486;4.650;2022-09-01T02:16:08;8.07;;;2.00;;
37851;SDS011;23691;52.486;4.650;2022-09-01T02:18:46;7.95;;;1.90;;
37851;SDS011;23691;52.486;4.650;2022-09-01T02:21:12;8.65;;;2.05;;
37851;SDS011;23691;52.486;4.650;2022-09-01T02:23:43;7.07;;;2.15;;
37851;SDS011;23691;52.486;4.650;2022-09-01T02:26:10;7.27;;;2.10;;
37851;SDS011;23691;52.486;4.650;2022-09-01T02:28:37;7.63;;;1.60;;
37851;SDS011;23691;52.486;4.650;2022-09-01T02:31:06;9.02;;;1.75;;
37851;SDS011;23691;52.486;4.650;2022-09-01T02:33:33;7.07;;;1.90;;
37851;SDS011;23691;52.486;4.650;2022-09-01T02:36:01;6.20;;;1.63;;
37851;SDS011;23691;52.486;4.650;2022-09-01T02:38:29;10.77;;;2.08;;
37851;SDS011;23691;52.486;4.650;2022-09-01T02:40:57;9.23;;;2.10;;
37851;SDS011;23691;52.486;4.650;2022-09-01T02:43:24;8.13;;;1.90;;
37851;SDS011;23691;52.486;4.650;2022-09-01T02:45:52;7.88;;;1.80;;
37851;SDS011;23691;52.486;4.650;2022-09-01T02:48:24;6.55;;;1.90;;
37851;SDS011;23691;52.486;4.650;2022-09-01T02:50:57;6.53;;;1.70;;
37851;SDS011;23691;52.486;4.650;2022-09-01T02:53:25;9.38;;;2.13;;
37851;SDS011;23691;52.486;4.650;2022-09-01T02:55:52;6.85;;;2.00;;
37851;SDS011;23691;52.486;4.650;2022-09-01T02:58:17;8.02;;;1.92;;
37851;SDS011;23691;52.486;4.650;2022-09-01T03:00:44;5.55;;;1.85;;
37851;SDS011;23691;52.486;4.650;2022-09-01T03:03:11;6.53;;;1.92;;
37851;SDS011;23691;52.486;4.650;2022-09-01T03:05:43;6.03;;;1.90;;
37851;SDS011;23691;52.486;4.650;2022-09-01T03:08:09;5.68;;;1.73;;
37851;SDS011;23691;52.486;4.650;2022-09-01T03:10:40;7.10;;;1.92;;
37851;SDS011;23691;52.486;4.650;2022-09-01T03:13:09;7.43;;;2.15;;
37851;SDS011;23691;52.486;4.650;2022-09-01T03:15:37;7.25;;;2.00;;
37851;SDS011;23691;52.486;4.650;2022-09-01T03:18:04;7.03;;;2.03;;
37851;SDS011;23691;52.486;4.650;2022-09-01T03:20:31;10.38;;;2.05;;
37851;SDS011;23691;52.486;4.650;2022-09-01T03:23:03;7.00;;;2.15;;
37851;SDS011;23691;52.486;4.650;2022-09-01T03:25:33;7.75;;;2.30;;
37851;SDS011;23691;52.486;4.650;2022-09-01T03:28:00;8.82;;;2.08;;
37851;SDS011;23691;52.486;4.650;2022-09-01T03:30:30;8.02;;;2.47;;
37851;SDS011;23691;52.486;4.650;2022-09-01T03:32:58;8.07;;;1.95;;
37851;SDS011;23691;52.486;4.650;2022-09-01T03:35:25;6.22;;;1.67;;
37851;SDS011;23691;52.486;4.650;2022-09-01T03:37:52;7.75;;;2.05;;
37851;SDS011;23691;52.486;4.650;2022-09-01T03:40:19;6.57;;;1.93;;
37851;SDS011;23691;52.486;4.650;2022-09-01T03:42:45;11.18;;;2.30;;
37851;SDS011;23691;52.486;4.650;2022-09-01T03:45:10;5.97;;;2.13;;
37851;SDS011;23691;52.486;4.650;2022-09-01T03:47:40;7.35;;;2.08;;
37851;SDS011;23691;52.486;4.650;2022-09-01T03:50:08;7.90;;;2.15;;
37851;SDS011;23691;52.486;4.650;2022-09-01T03:52:44;5.78;;;2.00;;
37851;SDS011;23691;52.486;4.650;2022-09-01T03:55:19;8.00;;;2.20;;
37851;SDS011;23691;52.486;4.650;2022-09-01T03:57:54;6.45;;;1.92;;
37851;SDS011;23691;52.486;4.650;2022-09-01T04:00:22;10.00;;;2.28;;
37851;SDS011;23691;52.486;4.650;2022-09-01T04:02:54;8.00;;;2.10;;
37851;SDS011;23691;52.486;4.650;2022-09-01T04:05:25;8.15;;;2.00;;
37851;SDS011;23691;52.486;4.650;2022-09-01T04:07:57;5.68;;;1.95;;
37851;SDS011;23691;52.486;4.650;2022-09-01T04:10:28;6.45;;;2.20;;
37851;SDS011;23691;52.486;4.650;2022-09-01T04:12:56;6.72;;;1.95;;
37851;SDS011;23691;52.486;4.650;2022-09-01T04:15:23;7.95;;;2.45;;
37851;SDS011;23691;52.486;4.650;2022-09-01T04:17:49;7.18;;;2.47;;
37851;SDS011;23691;52.486;4.650;2022-09-01T04:20:37;7.38;;;2.20;;
37851;SDS011;23691;52.486;4.650;2022-09-01T04:23:34;4.15;;;1.52;;
37851;SDS011;23691;52.486;4.650;2022-09-01T04:26:03;7.13;;;1.80;;
37851;SDS011;23691;52.486;4.650;2022-09-01T04:28:37;7.15;;;2.20;;
37851;SDS011;23691;52.486;4.650;2022-09-01T04:31:05;5.88;;;2.00;;
37851;SDS011;23691;52.486;4.650;2022-09-01T04:33:33;6.05;;;2.22;;
37851;SDS011;23691;52.486;4.650;2022-09-01T04:36:03;5.43;;;2.03;;
37851;SDS011;23691;52.486;4.650;2022-09-01T04:38:30;6.97;;;2.58;;
37851;SDS011;23691;52.486;4.650;2022-09-01T04:41:01;7.50;;;2.20;;
37851;SDS011;23691;52.486;4.650;2022-09-01T04:43:28;6.65;;;2.00;;
37851;SDS011;23691;52.486;4.650;2022-09-01T04:45:53;11.35;;;2.10;;
37851;SDS011;23691;52.486;4.650;2022-09-01T04:48:20;5.38;;;1.95;;
37851;SDS011;23691;52.486;4.650;2022-09-01T04:50:46;6.65;;;2.17;;
37851;SDS011;23691;52.486;4.650;2022-09-01T04:53:13;7.30;;;2.13;;
37851;SDS011;23691;52.486;4.650;2022-09-01T04:55:40;7.40;;;2.40;;
37851;SDS011;23691;52.486;4.650;2022-09-01T04:58:10;7.00;;;2.50;;
37851;SDS011;23691;52.486;4.650;2022-09-01T05:00:38;8.52;;;2.28;;
37851;SDS011;23691;52.486;4.650;2022-09-01T05:03:04;8.05;;;2.38;;
37851;SDS011;23691;52.486;4.650;2022-09-01T05:05:38;7.85;;;2.30;;
37851;SDS011;23691;52.486;4.650;2022-09-01T05:08:13;6.63;;;2.22;;
37851;SDS011;23691;52.486;4.650;2022-09-01T05:10:45;6.90;;;2.30;;
37851;SDS011;23691;52.486;4.650;2022-09-01T05:13:15;6.13;;;2.20;;
37851;SDS011;23691;52.486;4.650;2022-09-01T05:15:42;6.72;;;2.38;;
37851;SDS011;23691;52.486;4.650;2022-09-01T05:18:15;7.28;;;2.50;;
37851;SDS011;23691;52.486;4.650;2022-09-01T05:20:48;8.68;;;2.20;;
37851;SDS011;23691;52.486;4.650;2022-09-01T05:23:17;8.30;;;2.30;;
37851;SDS011;23691;52.486;4.650;2022-09-01T05:25:44;8.35;;;2.40;;
37851;SDS011;23691;52.486;4.650;2022-09-01T05:28:16;8.85;;;2.20;;
37851;SDS011;23691;52.486;4.650;2022-09-01T05:30:43;6.15;;;2.15;;
37851;SDS011;23691;52.486;4.650;2022-09-01T05:33:11;6.28;;;1.90;;
37851;SDS011;23691;52.486;4.650;2022-09-01T05:35:41;8.77;;;2.13;;
37851;SDS011;23691;52.486;4.650;2022-09-01T05:38:09;6.03;;;1.88;;
37851;SDS011;23691;52.486;4.650;2022-09-01T05:40:39;7.80;;;2.00;;
37851;SDS011;23691;52.486;4.650;2022-09-01T05:43:05;5.10;;;2.00;;
37851;SDS011;23691;52.486;4.650;2022-09-01T05:45:34;5.47;;;1.85;;
37851;SDS011;23691;52.486;4.650;2022-09-01T05:48:00;7.57;;;2.15;;
37851;SDS011;23691;52.486;4.650;2022-09-01T05:50:27;5.75;;;2.20;;
37851;SDS011;23691;52.486;4.650;2022-09-01T05:52:52;9.20;;;2.30;;
37851;SDS011;23691;52.486;4.650;2022-09-01T05:55:18;8.10;;;2.10;;
37851;SDS011;23691;52.486;4.650;2022-09-01T05:57:43;6.93;;;2.00;;
37851;SDS011;23691;52.486;4.650;2022-09-01T06:00:12;7.93;;;1.95;;
37851;SDS011;23691;52.486;4.650;2022-09-01T06:02:39;10.18;;;1.95;;
37851;SDS011;23691;52.486;4.650;2022-09-01T06:05:06;8.45;;;1.92;;
37851;SDS011;23691;52.486;4.650;2022-09-01T06:07:32;7.82;;;2.10;;
37851;SDS011;23691;52.486;4.650;2022-09-01T06:10:02;6.35;;;1.80;;
37851;SDS011;23691;52.486;4.650;2022-09-01T06:12:28;7.25;;;1.83;;
37851;SDS011;23691;52.486;4.650;2022-09-01T06:14:54;6.15;;;2.08;;
37851;SDS011;23691;52.486;4.650;2022-09-01T06:17:21;6.18;;;1.83;;
37851;SDS011;23691;52.486;4.650;2022-09-01T06:19:49;5.55;;;2.00;;
37851;SDS011;23691;52.486;4.650;2022-09-01T06:22:20;5.30;;;1.70;;
37851;SDS011;23691;52.486;4.650;2022-09-01T06:24:47;7.90;;;1.92;;
37851;SDS011;23691;52.486;4.650;2022-09-01T06:29:42;7.25;;;1.98;;
37851;SDS011;23691;52.486;4.650;2022-09-01T06:32:08;6.55;;;1.80;;
37851;SDS011;23691;52.486;4.650;2022-09-01T06:34:34;6.07;;;1.75;;
37851;SDS011;23691;52.486;4.650;2022-09-01T06:37:04;7.18;;;1.80;;
37851;SDS011;23691;52.486;4.650;2022-09-01T06:39:29;7.70;;;1.95;;
37851;SDS011;23691;52.486;4.650;2022-09-01T06:41:55;7.07;;;1.80;;
37851;SDS011;23691;52.486;4.650;2022-09-01T06:44:22;6.35;;;1.73;;
37851;SDS011;23691;52.486;4.650;2022-09-01T06:46:50;5.68;;;1.70;;
37851;SDS011;23691;52.486;4.650;2022-09-01T06:49:16;5.57;;;1.90;;
37851;SDS011;23691;52.486;4.650;2022-09-01T06:51:42;6.38;;;1.90;;
37851;SDS011;23691;52.486;4.650;2022-09-01T06:54:08;5.95;;;1.90;;
37851;SDS011;23691;52.486;4.650;2022-09-01T06:56:38;8.07;;;1.90;;
37851;SDS011;23691;52.486;4.650;2022-09-01T06:59:04;6.05;;;2.00;;
37851;SDS011;23691;52.486;4.650;2022-09-01T07:01:32;8.00;;;1.70;;
37851;SDS011;23691;52.486;4.650;2022-09-01T07:03:58;4.85;;;1.95;;
37851;SDS011;23691;52.486;4.650;2022-09-01T07:06:25;7.60;;;2.60;;
37851;SDS011;23691;52.486;4.650;2022-09-01T07:08:54;6.57;;;2.25;;
37851;SDS011;23691;52.486;4.650;2022-09-01T07:11:26;6.95;;;1.92;;
37851;SDS011;23691;52.486;4.650;2022-09-01T07:13:56;4.60;;;1.80;;
37851;SDS011;23691;52.486;4.650;2022-09-01T07:16:26;7.30;;;1.90;;
37851;SDS011;23691;52.486;4.650;2022-09-01T07:18:54;8.05;;;1.73;;
37851;SDS011;23691;52.486;4.650;2022-09-01T07:21:22;5.05;;;1.70;;
37851;SDS011;23691;52.486;4.650;2022-09-01T07:23:47;3.70;;;1.40;;
37851;SDS011;23691;52.486;4.650;2022-09-01T07:26:13;5.68;;;1.70;;
37851;SDS011;23691;52.486;4.650;2022-09-01T07:28:46;3.83;;;1.30;;
37851;SDS011;23691;52.486;4.650;2022-09-01T07:31:25;4.65;;;1.20;;
37851;SDS011;23691;52.486;4.650;2022-09-01T07:33:53;3.95;;;1.17;;
37851;SDS011;23691;52.486;4.650;2022-09-01T07:36:23;4.18;;;1.25;;
37851;SDS011;23691;52.486;4.650;2022-09-01T07:38:48;3.17;;;1.02;;
37851;SDS011;23691;52.486;4.650;2022-09-01T07:41:18;5.00;;;1.40;;
37851;SDS011;23691;52.486;4.650;2022-09-01T07:43:45;4.72;;;1.35;;
37851;SDS011;23691;52.486;4.650;2022-09-01T07:48:38;6.95;;;1.10;;
37851;SDS011;23691;52.486;4.650;2022-09-01T07:51:04;4.07;;;1.15;;
37851;SDS011;23691;52.486;4.650;2022-09-01T07:53:31;4.53;;;1.10;;
37851;SDS011;23691;52.486;4.650;2022-09-01T07:56:03;8.02;;;1.20;;
37851;SDS011;23691;52.486;4.650;2022-09-01T07:58:33;5.53;;;1.10;;
37851;SDS011;23691;52.486;4.650;2022-09-01T08:01:00;5.33;;;1.40;;
37851;SDS011;23691;52.486;4.650;2022-09-01T08:03:30;5.50;;;1.23;;
37851;SDS011;23691;52.486;4.650;2022-09-01T08:05:55;6.13;;;1.23;;
37851;SDS011;23691;52.486;4.650;2022-09-01T08:08:30;7.75;;;1.35;;
37851;SDS011;23691;52.486;4.650;2022-09-01T08:10:57;7.80;;;1.33;;
37851;SDS011;23691;52.486;4.650;2022-09-01T08:13:22;5.68;;;1.30;;
37851;SDS011;23691;52.486;4.650;2022-09-01T08:15:48;4.88;;;1.30;;
37851;SDS011;23691;52.486;4.650;2022-09-01T08:18:13;5.32;;;1.42;;
37851;SDS011;23691;52.486;4.650;2022-09-01T08:20:39;5.82;;;1.30;;
37851;SDS011;23691;52.486;4.650;2022-09-01T08:23:10;4.40;;;1.20;;
37851;SDS011;23691;52.486;4.650;2022-09-01T08:25:36;2.90;;;1.00;;
37851;SDS011;23691;52.486;4.650;2022-09-01T08:28:03;4.40;;;1.10;;
37851;SDS011;23691;52.486;4.650;2022-09-01T08:30:29;4.60;;;1.27;;
37851;SDS011;23691;52.486;4.650;2022-09-01T08:32:59;4.10;;;1.17;;
37851;SDS011;23691;52.486;4.650;2022-09-01T08:35:26;5.65;;;1.20;;
37851;SDS011;23691;52.486;4.650;2022-09-01T08:37:53;4.20;;;1.30;;
37851;SDS011;23691;52.486;4.650;2022-09-01T08:40:19;8.55;;;1.30;;
37851;SDS011;23691;52.486;4.650;2022-09-01T08:45:44;4.13;;;1.10;;
37851;SDS011;23691;52.486;4.650;2022-09-01T08:50:46;4.05;;;1.02;;
37851;SDS011;23691;52.486;4.650;2022-09-01T08:53:39;4.72;;;1.05;;
37851;SDS011;23691;52.486;4.650;2022-09-01T08:56:18;6.10;;;0.90;;
37851;SDS011;23691;52.486;4.650;2022-09-01T08:58:44;4.35;;;1.13;;
37851;SDS011;23691;52.486;4.650;2022-09-01T09:06:46;5.83;;;1.03;;
37851;SDS011;23691;52.486;4.650;2022-09-01T09:09:43;5.07;;;1.08;;
37851;SDS011;23691;52.486;4.650;2022-09-01T09:12:28;3.90;;;1.00;;
37851;SDS011;23691;52.486;4.650;2022-09-01T09:15:08;4.47;;;1.10;;
37851;SDS011;23691;52.486;4.650;2022-09-01T09:17:43;4.55;;;1.02;;
37851;SDS011;23691;52.486;4.650;2022-09-01T09:20:14;4.25;;;1.00;;
37851;SDS011;23691;52.486;4.650;2022-09-01T09:22:40;3.55;;;1.00;;
37851;SDS011;23691;52.486;4.650;2022-09-01T09:25:09;6.53;;;1.15;;
37851;SDS011;23691;52.486;4.650;2022-09-01T09:27:42;3.15;;;1.00;;
37851;SDS011;23691;52.486;4.650;2022-09-01T09:32:50;3.92;;;1.08;;
37851;SDS011;23691;52.486;4.650;2022-09-01T09:36:07;4.57;;;1.05;;
37851;SDS011;23691;52.486;4.650;2022-09-01T09:41:06;3.42;;;0.90;;
37851;SDS011;23691;52.486;4.650;2022-09-01T09:43:41;6.68;;;1.52;;
37851;SDS011;23691;52.486;4.650;2022-09-01T09:48:45;3.47;;;0.85;;
37851;SDS011;23691;52.486;4.650;2022-09-01T09:51:21;6.43;;;1.10;;
37851;SDS011;23691;52.486;4.650;2022-09-01T09:53:46;4.95;;;0.90;;
37851;SDS011;23691;52.486;4.650;2022-09-01T09:58:49;5.03;;;1.00;;
37851;SDS011;23691;52.486;4.650;2022-09-01T10:03:58;5.88;;;0.98;;
37851;SDS011;23691;52.486;4.650;2022-09-01T10:08:58;6.38;;;0.98;;
37851;SDS011;23691;52.486;4.650;2022-09-01T10:14:10;7.27;;;1.00;;
37851;SDS011;23691;52.486;4.650;2022-09-01T10:16:41;3.92;;;1.00;;
37851;SDS011;23691;52.486;4.650;2022-09-01T10:19:10;6.05;;;0.90;;
37851;SDS011;23691;52.486;4.650;2022-09-01T10:21:37;5.50;;;0.90;;
37851;SDS011;23691;52.486;4.650;2022-09-01T10:24:13;4.97;;;1.00;;
37851;SDS011;23691;52.486;4.650;2022-09-01T10:26:46;7.38;;;0.88;;
37851;SDS011;23691;52.486;4.650;2022-09-01T10:29:21;6.97;;;0.98;;
37851;SDS011;23691;52.486;4.650;2022-09-01T10:32:21;5.65;;;1.10;;
37851;SDS011;23691;52.486;4.650;2022-09-01T10:34:50;5.20;;;0.80;;
37851;SDS011;23691;52.486;4.650;2022-09-01T10:37:17;3.27;;;0.93;;
37851;SDS011;23691;52.486;4.650;2022-09-01T10:42:43;7.70;;;0.90;;
37851;SDS011;23691;52.486;4.650;2022-09-01T10:45:44;6.30;;;0.98;;
37851;SDS011;23691;52.486;4.650;2022-09-01T10:50:45;2.28;;;0.85;;
37851;SDS011;23691;52.486;4.650;2022-09-01T10:53:56;4.15;;;0.90;;
37851;SDS011;23691;52.486;4.650;2022-09-01T11:01:13;2.97;;;0.80;;
37851;SDS011;23691;52.486;4.650;2022-09-01T11:03:47;5.57;;;0.80;;
37851;SDS011;23691;52.486;4.650;2022-09-01T11:09:06;4.30;;;0.95;;
37851;SDS011;23691;52.486;4.650;2022-09-01T11:14:56;3.92;;;1.00;;
37851;SDS011;23691;52.486;4.650;2022-09-01T11:17:33;5.75;;;0.80;;
37851;SDS011;23691;52.486;4.650;2022-09-01T11:30:14;5.95;;;0.95;;
37851;SDS011;23691;52.486;4.650;2022-09-01T11:32:41;5.40;;;0.90;;
37851;SDS011;23691;52.486;4.650;2022-09-01T11:35:16;4.82;;;0.90;;
37851;SDS011;23691;52.486;4.650;2022-09-01T11:37:48;3.38;;;0.80;;
37851;SDS011;23691;52.486;4.650;2022-09-01T11:40:18;2.05;;;0.80;;
37851;SDS011;23691;52.486;4.650;2022-09-01T11:42:50;3.97;;;0.80;;
37851;SDS011;23691;52.486;4.650;2022-09-01T11:47:54;8.68;;;0.90;;
37851;SDS011;23691;52.486;4.650;2022-09-01T11:50:35;3.95;;;0.80;;
37851;SDS011;23691;52.486;4.650;2022-09-01T11:55:33;5.55;;;0.85;;
37851;SDS011;23691;52.486;4.650;2022-09-01T11:58:00;4.00;;;0.90;;
37851;SDS011;23691;52.486;4.650;2022-09-01T12:00:30;3.60;;;0.90;;
37851;SDS011;23691;52.486;4.650;2022-09-01T12:03:02;6.00;;;0.98;;
37851;SDS011;23691;52.486;4.650;2022-09-01T12:08:03;2.83;;;0.70;;
37851;SDS011;23691;52.486;4.650;2022-09-01T12:10:38;4.32;;;0.90;;
37851;SDS011;23691;52.486;4.650;2022-09-01T12:13:37;3.70;;;0.80;;
37851;SDS011;23691;52.486;4.650;2022-09-01T12:15:56;6.53;;;0.95;;
37851;SDS011;23691;52.486;4.650;2022-09-01T12:18:28;7.40;;;0.90;;
37851;SDS011;23691;52.486;4.650;2022-09-01T12:21:00;1.85;;;0.60;;
37851;SDS011;23691;52.486;4.650;2022-09-01T12:25:58;2.38;;;0.80;;
37851;SDS011;23691;52.486;4.650;2022-09-01T12:28:27;6.30;;;0.90;;
37851;SDS011;23691;52.486;4.650;2022-09-01T12:31:05;2.05;;;0.70;;
37851;SDS011;23691;52.486;4.650;2022-09-01T12:33:36;3.03;;;0.73;;
37851;SDS011;23691;52.486;4.650;2022-09-01T12:38:47;3.95;;;0.70;;
37851;SDS011;23691;52.486;4.650;2022-09-01T12:41:23;2.75;;;0.70;;
37851;SDS011;23691;52.486;4.650;2022-09-01T12:46:54;3.65;;;0.73;;
37851;SDS011;23691;52.486;4.650;2022-09-01T12:49:24;3.88;;;0.80;;
37851;SDS011;23691;52.486;4.650;2022-09-01T12:54:50;2.78;;;0.70;;
37851;SDS011;23691;52.486;4.650;2022-09-01T12:57:51;2.10;;;0.50;;
37851;SDS011;23691;52.486;4.650;2022-09-01T13:00:20;3.53;;;0.70;;
37851;SDS011;23691;52.486;4.650;2022-09-01T13:02:49;2.00;;;0.75;;
37851;SDS011;23691;52.486;4.650;2022-09-01T13:07:58;3.58;;;0.73;;
37851;SDS011;23691;52.486;4.650;2022-09-01T13:13:06;1.48;;;0.50;;
37851;SDS011;23691;52.486;4.650;2022-09-01T13:15:34;4.18;;;1.00;;
37851;SDS011;23691;52.486;4.650;2022-09-01T13:18:01;5.25;;;0.60;;
37851;SDS011;23691;52.486;4.650;2022-09-01T13:20:26;2.55;;;0.70;;
37851;SDS011;23691;52.486;4.650;2022-09-01T13:22:52;4.78;;;0.80;;
37851;SDS011;23691;52.486;4.650;2022-09-01T13:25:19;4.93;;;0.80;;
37851;SDS011;23691;52.486;4.650;2022-09-01T13:27:46;5.10;;;0.60;;
37851;SDS011;23691;52.486;4.650;2022-09-01T13:30:19;3.42;;;0.88;;
37851;SDS011;23691;52.486;4.650;2022-09-01T13:32:46;4.05;;;0.50;;
37851;SDS011;23691;52.486;4.650;2022-09-01T13:35:14;1.90;;;0.68;;
37851;SDS011;23691;52.486;4.650;2022-09-01T13:37:41;3.25;;;0.70;;
37851;SDS011;23691;52.486;4.650;2022-09-01T13:40:07;2.65;;;0.70;;
37851;SDS011;23691;52.486;4.650;2022-09-01T13:42:38;2.80;;;0.70;;
37851;SDS011;23691;52.486;4.650;2022-09-01T13:45:03;2.30;;;0.60;;
37851;SDS011;23691;52.486;4.650;2022-09-01T13:47:30;7.00;;;0.70;;
37851;SDS011;23691;52.486;4.650;2022-09-01T13:49:55;2.40;;;0.80;;
37851;SDS011;23691;52.486;4.650;2022-09-01T13:52:21;3.88;;;0.65;;
37851;SDS011;23691;52.486;4.650;2022-09-01T13:54:46;4.90;;;0.80;;
37851;SDS011;23691;52.486;4.650;2022-09-01T13:57:12;6.65;;;0.70;;
37851;SDS011;23691;52.486;4.650;2022-09-01T13:59:38;3.92;;;0.70;;
37851;SDS011;23691;52.486;4.650;2022-09-01T14:02:06;4.75;;;0.70;;
37851;SDS011;23691;52.486;4.650;2022-09-01T14:04:33;3.22;;;0.65;;
37851;SDS011;23691;52.486;4.650;2022-09-01T14:06:59;5.15;;;0.80;;
37851;SDS011;23691;52.486;4.650;2022-09-01T14:09:24;4.07;;;0.68;;
37851;SDS011;23691;52.486;4.650;2022-09-01T14:11:53;2.72;;;0.60;;
37851;SDS011;23691;52.486;4.650;2022-09-01T14:14:19;2.47;;;0.50;;
37851;SDS011;23691;52.486;4.650;2022-09-01T14:16:45;3.38;;;0.70;;
37851;SDS011;23691;52.486;4.650;2022-09-01T14:19:10;4.22;;;0.60;;
37851;SDS011;23691;52.486;4.650;2022-09-01T14:21:36;5.43;;;0.95;;
37851;SDS011;23691;52.486;4.650;2022-09-01T14:24:02;7.05;;;0.90;;
37851;SDS011;23691;52.486;4.650;2022-09-01T14:26:29;4.90;;;0.73;;
37851;SDS011;23691;52.486;4.650;2022-09-01T14:28:54;4.10;;;0.73;;
37851;SDS011;23691;52.486;4.650;2022-09-01T14:31:20;1.95;;;0.63;;
37851;SDS011;23691;52.486;4.650;2022-09-01T14:33:48;2.35;;;0.63;;
37851;SDS011;23691;52.486;4.650;2022-09-01T14:36:17;7.50;;;0.70;;
37851;SDS011;23691;52.486;4.650;2022-09-01T14:38:45;3.60;;;0.98;;
37851;SDS011;23691;52.486;4.650;2022-09-01T14:41:13;8.82;;;0.68;;
37851;SDS011;23691;52.486;4.650;2022-09-01T14:43:39;3.35;;;0.70;;
37851;SDS011;23691;52.486;4.650;2022-09-01T14:46:07;2.35;;;0.70;;
37851;SDS011;23691;52.486;4.650;2022-09-01T14:48:35;3.42;;;0.73;;
37851;SDS011;23691;52.486;4.650;2022-09-01T14:51:01;6.47;;;0.90;;
37851;SDS011;23691;52.486;4.650;2022-09-01T14:53:27;3.03;;;0.70;;
37851;SDS011;23691;52.486;4.650;2022-09-01T14:55:54;4.97;;;0.73;;
37851;SDS011;23691;52.486;4.650;2022-09-01T14:58:20;4.30;;;0.70;;
37851;SDS011;23691;52.486;4.650;2022-09-01T15:00:46;3.17;;;0.70;;
37851;SDS011;23691;52.486;4.650;2022-09-01T15:03:11;3.55;;;1.00;;
37851;SDS011;23691;52.486;4.650;2022-09-01T15:05:37;3.20;;;0.80;;
37851;SDS011;23691;52.486;4.650;2022-09-01T15:08:03;4.45;;;1.00;;
37851;SDS011;23691;52.486;4.650;2022-09-01T15:10:29;3.63;;;0.80;;
37851;SDS011;23691;52.486;4.650;2022-09-01T15:12:56;4.00;;;0.77;;
37851;SDS011;23691;52.486;4.650;2022-09-01T15:15:24;2.65;;;0.88;;
37851;SDS011;23691;52.486;4.650;2022-09-01T15:17:51;6.20;;;0.70;;
37851;SDS011;23691;52.486;4.650;2022-09-01T15:20:17;4.78;;;0.70;;
37851;SDS011;23691;52.486;4.650;2022-09-01T15:23:01;2.83;;;0.80;;
37851;SDS011;23691;52.486;4.650;2022-09-01T15:25:27;2.10;;;0.80;;
37851;SDS011;23691;52.486;4.650;2022-09-01T15:27:52;3.28;;;0.80;;
37851;SDS011;23691;52.486;4.650;2022-09-01T15:30:18;5.60;;;0.98;;
37851;SDS011;23691;52.486;4.650;2022-09-01T15:32:46;2.45;;;0.65;;
37851;SDS011;23691;52.486;4.650;2022-09-01T15:35:13;2.35;;;0.75;;
37851;SDS011;23691;52.486;4.650;2022-09-01T15:37:40;2.92;;;0.75;;
37851;SDS011;23691;52.486;4.650;2022-09-01T15:40:06;6.30;;;1.02;;
37851;SDS011;23691;52.486;4.650;2022-09-01T15:42:33;4.33;;;1.03;;
37851;SDS011;23691;52.486;4.650;2022-09-01T15:45:00;4.90;;;0.70;;
37851;SDS011;23691;52.486;4.650;2022-09-01T15:47:30;3.25;;;0.68;;
37851;SDS011;23691;52.486;4.650;2022-09-01T15:49:55;2.85;;;0.80;;
37851;SDS011;23691;52.486;4.650;2022-09-01T15:52:21;3.38;;;0.75;;
37851;SDS011;23691;52.486;4.650;2022-09-01T15:54:46;5.60;;;0.88;;
37851;SDS011;23691;52.486;4.650;2022-09-01T15:57:12;3.85;;;0.90;;
37851;SDS011;23691;52.486;4.650;2022-09-01T15:59:37;2.55;;;0.60;;
37851;SDS011;23691;52.486;4.650;2022-09-01T16:02:07;5.63;;;0.65;;
37851;SDS011;23691;52.486;4.650;2022-09-01T16:04:36;6.10;;;0.90;;
37851;SDS011;23691;52.486;4.650;2022-09-01T16:07:02;3.30;;;0.73;;
37851;SDS011;23691;52.486;4.650;2022-09-01T16:09:28;4.35;;;0.82;;
37851;SDS011;23691;52.486;4.650;2022-09-01T16:11:53;3.72;;;0.80;;
37851;SDS011;23691;52.486;4.650;2022-09-01T16:14:18;1.88;;;0.70;;
37851;SDS011;23691;52.486;4.650;2022-09-01T16:16:51;4.63;;;0.80;;
37851;SDS011;23691;52.486;4.650;2022-09-01T16:24:46;1.77;;;0.70;;
37851;SDS011;23691;52.486;4.650;2022-09-01T16:27:21;6.47;;;0.70;;
37851;SDS011;23691;52.486;4.650;2022-09-01T16:29:57;2.03;;;0.70;;
37851;SDS011;23691;52.486;4.650;2022-09-01T16:32:26;3.65;;;0.82;;
37851;SDS011;23691;52.486;4.650;2022-09-01T16:34:52;4.10;;;0.70;;
37851;SDS011;23691;52.486;4.650;2022-09-01T16:39:49;4.82;;;0.80;;
37851;SDS011;23691;52.486;4.650;2022-09-01T16:42:24;7.72;;;0.80;;
37851;SDS011;23691;52.486;4.650;2022-09-01T16:48:44;3.08;;;0.90;;
37851;SDS011;23691;52.486;4.650;2022-09-01T16:55:57;4.63;;;0.80;;
37851;SDS011;23691;52.486;4.650;2022-09-01T17:04:40;3.88;;;0.80;;